HAAB METAR and TAF | Updated Today

HAAB METAR

Addis Ababa Bole International Airport

Observation time: 3:32 hr. ago

HAAB 200400Z 33003KT 9999 FEW025 15/05 Q1026 NOSIG

Need help? Read our tutorial on how to read METARs or read the parsed version below.

Addis Ababa Bole International Airport (HAAB) METAR

  • Weather conditions on Fri, 20 May 2022 04:00:00 +0000 (3:32 hr. ago):
  • Present conditions: Dry
  • Clouds: A few at 762 meters
  • Visibility: Greater than 10 km
  • Wind: 330 degrees at 3 knots
  • Temperature: 15 celsius
  • Dew point: 5 celsius
  • Pressure: 1026 millibars
  • Remarks: None


Useful to know...

HAAB TAF

Addis Ababa Bole International Airport

TAF HAAB 200330Z 2006/2112 14006KT 9999 SCT030 SCT090 BECMG 2006/2010 06009KT FEW030
Observation time: 4:02 hr. ago
Need help? Read our tutorial on how to read TAFs or read the parsed version below.

Parsed version of TAF for Addis Ababa Bole International Airport (HAAB)

  • From 20 May at 06:00 UTC, to day 21 of the month at 12:00 UTC
  • Clouds: Scattered at 914 meters; scattered at 2743 meters
  • Visibility: Greater than 10 km
  • Wind: 140 degrees at 6
  • Expected to arise soon, from 20 May at 06:00 UTC, to day 20 of the month at 10:00 UTC
  • Clouds: A few at 914 meters
  • Wind: 60 degrees at 9